Terminal Aerodrome Forecast
Issued by NWS Sioux Falls, SD

Home | Current Version | Previous Version | Text Only | Print | Product List | Glossary On
Versions: 1 2 3 4 5 6 7 8 9 10 11 12 13 14 15 16 17 18 19 20
000
FTUS43 KFSD 180905 AAA
TAFFSD
TAF AMD
KFSD 180905Z 1809/1906 13005KT P6SM OVC030
     FM181000 14006KT P6SM -SHRA OVC025
     FM181200 14006KT P6SM -SHRA OVC015
     FM181500 14007KT P6SM VCSH OVC010
     FM181800 14009KT P6SM BKN015=

USA.gov is the U.S. government's official web portal to all federal, state and local government web resources and services.